Time;durP1;ratioP1;P1;durP2;ratioP2;P2;SDS_P1;SDS_P2;PMS_P1;PMS_P2;Temp;Humidity;BMP_temperature;BMP_pressure;BME280_temperature;BME280_humidity;BME280_pressure;Samples;Min_cycle;Max_cycle;Signal;HPM_P1;HPM_P2
2022/04/27 00:01:02;;;;;;;;;;;21.60;39.90;;;;;;476320;248;1123;-39
2022/04/27 00:03:03;;;;;;;;;;;21.60;39.90;;;;;;476416;248;2146;-39
2022/04/27 00:05:04;;;;;;;;;;;21.50;39.90;;;;;;476342;248;1162;-39
2022/04/27 00:07:07;;;;;;;;;;;21.50;39.90;;;;;;476755;248;2200;-39
2022/04/27 00:09:07;;;;;;;;;;;21.60;40.00;;;;;;476710;248;2556;-39
2022/04/27 00:11:09;;;;;;;;;;;21.60;39.90;;;;;;476805;248;1117;-39
2022/04/27 00:13:10;;;;;;;;;;;21.60;39.90;;;;;;476730;248;1067;-39
2022/04/27 00:15:11;;;;;;;;;;;21.50;39.90;;;;;;476587;249;1316;-39
2022/04/27 00:17:12;;;;;;;;;;;21.60;39.90;;;;;;476291;248;1329;-39
2022/04/27 00:19:13;;;;;;;;;;;21.50;39.90;;;;;;476786;249;1048;-39
2022/04/27 00:21:15;;;;;;;;;;;21.50;39.90;;;;;;476743;248;1203;-39
2022/04/27 00:23:16;;;;;;;;;;;21.50;39.90;;;;;;476837;248;1244;-39
2022/04/27 00:25:17;;;;;;;;;;;21.50;39.90;;;;;;476805;248;1233;-39
2022/04/27 00:27:19;;;;;;;;;;;21.60;40.00;;;;;;476690;248;2137;-39
2022/04/27 00:29:20;;;;;;;;;;;21.50;39.90;;;;;;476307;248;1066;-39
2022/04/27 00:31:21;;;;;;;;;;;21.50;39.90;;;;;;476319;248;1298;-39
2022/04/27 00:33:23;;;;;;;;;;;21.50;39.90;;;;;;476307;248;1294;-39
2022/04/27 00:35:24;;;;;;;;;;;21.50;39.90;;;;;;476592;248;1029;-39
2022/04/27 00:37:25;;;;;;;;;;;21.50;40.00;;;;;;476318;248;1259;-39
2022/04/27 00:39:27;;;;;;;;;;;21.50;39.90;;;;;;476590;248;1246;-39
2022/04/27 00:41:28;;;;;;;;;;;21.50;39.90;;;;;;476778;247;1449;-39
2022/04/27 00:43:29;;;;;;;;;;;21.50;39.90;;;;;;476330;248;1073;-39
2022/04/27 00:45:31;;;;;;;;;;;21.50;39.90;;;;;;476568;248;1159;-39
2022/04/27 00:47:32;;;;;;;;;;;21.50;39.90;;;;;;476541;248;2140;-39
2022/04/27 00:49:33;;;;;;;;;;;21.50;39.90;;;;;;476415;249;1061;-39
2022/04/27 00:51:35;;;;;;;;;;;21.60;39.90;;;;;;476774;247;1258;-39
2022/04/27 00:53:37;;;;;;;;;;;21.50;39.90;;;;;;476557;248;1061;-39
2022/04/27 00:55:39;;;;;;;;;;;21.50;39.90;;;;;;476814;248;1041;-39
2022/04/27 00:57:40;;;;;;;;;;;21.50;39.90;;;;;;476699;248;1152;-39
2022/04/27 00:59:41;;;;;;;;;;;21.50;39.90;;;;;;476357;248;1292;-39
2022/04/27 01:01:42;;;;;;;;;;;21.50;39.90;;;;;;476320;248;1273;-40
2022/04/27 01:03:44;;;;;;;;;;;21.50;39.90;;;;;;476649;248;1090;-39
2022/04/27 01:05:45;;;;;;;;;;;21.60;39.90;;;;;;476615;248;1253;-39
2022/04/27 01:07:46;;;;;;;;;;;21.60;39.90;;;;;;476375;248;2124;-39
2022/04/27 01:09:48;;;;;;;;;;;21.60;39.90;;;;;;476385;248;1093;-39
2022/04/27 01:11:49;;;;;;;;;;;21.60;39.90;;;;;;476336;248;1124;-39
2022/04/27 01:13:50;;;;;;;;;;;21.60;39.80;;;;;;476760;249;1248;-39
2022/04/27 01:15:52;;;;;;;;;;;21.60;39.80;;;;;;476638;248;1201;-39
2022/04/27 01:17:53;;;;;;;;;;;21.50;39.90;;;;;;476814;248;1215;-39
2022/04/27 01:19:54;;;;;;;;;;;21.50;39.90;;;;;;476845;248;1066;-39
2022/04/27 01:21:56;;;;;;;;;;;21.50;40.00;;;;;;476687;248;1388;-39
2022/04/27 01:23:57;;;;;;;;;;;21.50;39.90;;;;;;476730;248;1198;-39
2022/04/27 01:26:05;;;;;;;;;;;21.50;39.90;;;;;;476872;248;1115;-39
2022/04/27 01:28:00;;;;;;;;;;;21.60;39.90;;;;;;476459;249;2211;-39
2022/04/27 01:30:01;;;;;;;;;;;21.50;39.90;;;;;;476406;248;1057;-39
2022/04/27 01:32:02;;;;;;;;;;;21.50;39.80;;;;;;476328;248;1167;-39
2022/04/27 01:34:03;;;;;;;;;;;21.60;39.90;;;;;;476623;248;972;-39
2022/04/27 01:36:05;;;;;;;;;;;21.50;39.80;;;;;;476788;248;1093;-39
2022/04/27 01:38:07;;;;;;;;;;;21.50;39.90;;;;;;476544;248;1316;-39
2022/04/27 01:40:07;;;;;;;;;;;21.50;39.90;;;;;;476474;249;2250;-39
2022/04/27 01:42:09;;;;;;;;;;;21.50;39.90;;;;;;476722;248;1150;-39
2022/04/27 01:44:10;;;;;;;;;;;21.50;40.00;;;;;;476560;248;1077;-39
2022/04/27 01:46:11;;;;;;;;;;;21.50;39.90;;;;;;476641;248;1308;-39
2022/04/27 01:48:13;;;;;;;;;;;21.50;40.00;;;;;;476758;248;2113;-39
2022/04/27 01:50:14;;;;;;;;;;;21.50;39.90;;;;;;476432;248;1235;-39
2022/04/27 01:54:55;;;;;;;;;;;21.50;39.90;;;;;;452546;260;1137;-39
2022/04/27 01:56:56;;;;;;;;;;;21.50;39.90;;;;;;452962;263;1147;-39
2022/04/27 01:58:57;;;;;;;;;;;21.60;39.90;;;;;;452747;263;1211;-39
2022/04/27 02:00:58;;;;;;;;;;;21.60;39.90;;;;;;465385;254;1625;-39
2022/04/27 02:03:00;;;;;;;;;;;21.50;39.80;;;;;;463016;256;1078;-39
2022/04/27 02:05:02;;;;;;;;;;;21.50;39.90;;;;;;467186;253;1060;-39
2022/04/27 02:07:02;;;;;;;;;;;21.60;39.90;;;;;;462604;256;2200;-39
2022/04/27 02:09:04;;;;;;;;;;;21.50;39.80;;;;;;467008;253;1074;-39
2022/04/27 02:11:06;;;;;;;;;;;21.50;39.90;;;;;;462655;256;1174;-39
2022/04/27 02:13:07;;;;;;;;;;;21.50;39.80;;;;;;476320;249;1727;-39
2022/04/27 02:15:09;;;;;;;;;;;21.50;39.80;;;;;;476318;248;1357;-39
2022/04/27 02:17:10;;;;;;;;;;;21.50;39.80;;;;;;476364;248;1147;-39
2022/04/27 02:19:13;;;;;;;;;;;21.50;39.90;;;;;;476433;248;1135;-39
2022/04/27 02:21:14;;;;;;;;;;;21.50;39.90;;;;;;476709;249;2390;-39
2022/04/27 02:23:19;;;;;;;;;;;21.50;39.90;;;;;;476366;250;2727;-39
2022/04/27 02:25:15;;;;;;;;;;;21.50;39.90;;;;;;476085;250;2135;-39
2022/04/27 02:27:17;;;;;;;;;;;21.50;39.90;;;;;;476726;248;2133;-39
2022/04/27 02:29:18;;;;;;;;;;;21.50;39.90;;;;;;476800;248;1112;-39
2022/04/27 02:31:19;;;;;;;;;;;21.60;39.90;;;;;;476614;248;1319;-39
2022/04/27 02:33:21;;;;;;;;;;;21.50;39.80;;;;;;476432;248;1080;-39
2022/04/27 02:35:22;;;;;;;;;;;21.50;39.90;;;;;;476825;248;1170;-39
2022/04/27 02:37:23;;;;;;;;;;;21.50;39.90;;;;;;476311;248;1251;-39
2022/04/27 02:39:24;;;;;;;;;;;21.50;39.90;;;;;;476762;249;1098;-39
2022/04/27 02:41:26;;;;;;;;;;;21.50;39.90;;;;;;476799;248;1142;-39
2022/04/27 02:43:27;;;;;;;;;;;21.50;39.90;;;;;;476659;248;1076;-39
2022/04/27 02:45:29;;;;;;;;;;;21.50;39.90;;;;;;476363;248;1075;-39
2022/04/27 02:47:30;;;;;;;;;;;21.50;39.90;;;;;;476573;248;2352;-39
2022/04/27 02:52:04;;;;;;;;;;;21.50;39.90;;;;;;457339;254;1204;-39
2022/04/27 02:54:05;;;;;;;;;;;21.50;39.90;;;;;;463050;256;1062;-39
2022/04/27 02:56:07;;;;;;;;;;;21.50;39.90;;;;;;476391;246;1484;-39
2022/04/27 02:58:08;;;;;;;;;;;21.50;39.90;;;;;;476872;248;1053;-39
2022/04/27 03:00:10;;;;;;;;;;;21.50;39.90;;;;;;476758;248;1031;-39
2022/04/27 03:02:11;;;;;;;;;;;21.50;39.90;;;;;;476365;250;1168;-39
2022/04/27 03:04:12;;;;;;;;;;;21.50;39.90;;;;;;476679;248;1102;-39
2022/04/27 03:06:14;;;;;;;;;;;21.50;39.90;;;;;;476364;248;1098;-39
2022/04/27 03:08:15;;;;;;;;;;;21.50;39.90;;;;;;476718;248;2129;-39
2022/04/27 03:10:16;;;;;;;;;;;21.40;40.00;;;;;;476411;248;1052;-39
2022/04/27 03:12:18;;;;;;;;;;;21.50;40.00;;;;;;476277;248;1221;-39
2022/04/27 03:14:19;;;;;;;;;;;21.50;39.90;;;;;;476675;249;1131;-39
2022/04/27 03:16:20;;;;;;;;;;;21.50;40.00;;;;;;476672;248;1111;-39
2022/04/27 03:18:22;;;;;;;;;;;21.50;39.90;;;;;;476432;248;1146;-39
2022/04/27 03:20:23;;;;;;;;;;;21.50;40.00;;;;;;476521;248;1020;-39
2022/04/27 03:22:24;;;;;;;;;;;21.50;39.90;;;;;;476340;248;1074;-39
2022/04/27 03:24:26;;;;;;;;;;;21.40;40.00;;;;;;476631;248;1098;-39
2022/04/27 03:26:27;;;;;;;;;;;21.50;39.90;;;;;;476660;248;1123;-39
2022/04/27 03:28:29;;;;;;;;;;;21.50;39.90;;;;;;476824;248;2121;-39
2022/04/27 03:30:30;;;;;;;;;;;21.60;39.90;;;;;;476824;248;1087;-39
2022/04/27 03:32:31;;;;;;;;;;;21.50;39.90;;;;;;476663;248;1317;-39
2022/04/27 03:34:33;;;;;;;;;;;21.50;39.90;;;;;;476536;248;1069;-39
2022/04/27 03:36:34;;;;;;;;;;;21.50;39.90;;;;;;476771;248;1236;-39
2022/04/27 03:38:35;;;;;;;;;;;21.50;39.90;;;;;;476387;248;1046;-39
2022/04/27 03:40:37;;;;;;;;;;;21.40;40.00;;;;;;476398;248;1124;-39
2022/04/27 03:42:38;;;;;;;;;;;21.40;39.90;;;;;;476475;248;1191;-39
2022/04/27 03:44:39;;;;;;;;;;;21.50;40.00;;;;;;476288;248;1070;-39
2022/04/27 03:46:41;;;;;;;;;;;21.50;40.00;;;;;;476345;248;1242;-39
2022/04/27 03:48:42;;;;;;;;;;;21.50;40.00;;;;;;476335;248;2192;-39
2022/04/27 03:50:43;;;;;;;;;;;21.50;40.00;;;;;;476466;248;1028;-39
2022/04/27 03:52:44;;;;;;;;;;;21.40;40.00;;;;;;476778;248;1063;-39
2022/04/27 03:54:46;;;;;;;;;;;21.50;40.00;;;;;;476454;248;1232;-39
2022/04/27 03:56:47;;;;;;;;;;;21.50;39.90;;;;;;476389;248;1058;-39
2022/04/27 03:58:49;;;;;;;;;;;21.50;39.90;;;;;;476351;248;1053;-39
2022/04/27 04:00:50;;;;;;;;;;;21.40;39.90;;;;;;476464;248;1079;-40
2022/04/27 04:02:51;;;;;;;;;;;21.50;40.00;;;;;;476350;248;1789;-39
2022/04/27 04:04:52;;;;;;;;;;;21.50;39.90;;;;;;476798;248;1031;-39
2022/04/27 04:06:54;;;;;;;;;;;21.50;39.90;;;;;;476702;248;1142;-39
2022/04/27 04:08:55;;;;;;;;;;;21.50;40.00;;;;;;476790;248;2117;-39
2022/04/27 04:10:56;;;;;;;;;;;21.50;39.90;;;;;;476833;248;1175;-39
2022/04/27 04:12:58;;;;;;;;;;;21.50;39.90;;;;;;476418;248;1101;-39
2022/04/27 04:14:59;;;;;;;;;;;21.50;39.90;;;;;;476463;248;1088;-39
2022/04/27 04:17:00;;;;;;;;;;;21.50;39.90;;;;;;476741;249;1169;-39
2022/04/27 04:19:01;;;;;;;;;;;21.50;39.90;;;;;;476417;248;1142;-39
2022/04/27 04:21:03;;;;;;;;;;;21.50;39.80;;;;;;476815;248;1359;-39
2022/04/27 04:23:04;;;;;;;;;;;21.50;39.90;;;;;;476323;248;1043;-40
2022/04/27 04:29:44;;;;;;;;;;;21.50;40.00;;;;;;476444;249;1050;-39
2022/04/27 04:31:45;;;;;;;;;;;21.50;39.90;;;;;;476683;248;1132;-39
2022/04/27 04:33:47;;;;;;;;;;;21.50;39.90;;;;;;476585;248;1183;-39
2022/04/27 04:35:48;;;;;;;;;;;21.50;39.90;;;;;;476468;249;1247;-39
2022/04/27 04:37:49;;;;;;;;;;;21.50;39.90;;;;;;476737;248;1188;-39
2022/04/27 04:39:51;;;;;;;;;;;21.50;39.90;;;;;;476316;248;1096;-39
2022/04/27 04:41:52;;;;;;;;;;;21.50;40.00;;;;;;476549;248;1164;-39
2022/04/27 04:43:53;;;;;;;;;;;21.50;39.90;;;;;;476458;248;1118;-39
2022/04/27 04:45:55;;;;;;;;;;;21.50;39.90;;;;;;476519;248;1346;-39
2022/04/27 04:47:56;;;;;;;;;;;21.50;39.90;;;;;;476546;248;2143;-39
2022/04/27 04:49:57;;;;;;;;;;;21.50;39.90;;;;;;476299;248;1234;-39
2022/04/27 04:51:59;;;;;;;;;;;21.50;39.90;;;;;;476330;248;1149;-39
2022/04/27 04:54:00;;;;;;;;;;;21.60;39.90;;;;;;476161;248;1064;-39
2022/04/27 04:56:01;;;;;;;;;;;21.50;39.90;;;;;;476236;248;1296;-39
2022/04/27 04:58:03;;;;;;;;;;;21.50;39.90;;;;;;476555;248;1159;-39
2022/04/27 05:00:04;;;;;;;;;;;21.50;40.00;;;;;;476415;248;1046;-39
2022/04/27 05:02:06;;;;;;;;;;;21.40;40.00;;;;;;476630;248;1166;-39
2022/04/27 05:04:07;;;;;;;;;;;21.50;40.00;;;;;;476299;248;1127;-39
2022/04/27 05:06:08;;;;;;;;;;;21.50;40.00;;;;;;476287;248;1164;-39
2022/04/27 05:08:10;;;;;;;;;;;21.50;39.90;;;;;;476655;248;2203;-39
2022/04/27 05:10:11;;;;;;;;;;;21.50;39.90;;;;;;476606;249;1052;-39
2022/04/27 05:12:12;;;;;;;;;;;21.50;39.90;;;;;;476205;248;1208;-39
2022/04/27 05:14:14;;;;;;;;;;;21.50;39.90;;;;;;476296;248;1213;-39
2022/04/27 05:16:15;;;;;;;;;;;21.50;39.80;;;;;;476551;248;1486;-39
2022/04/27 05:18:17;;;;;;;;;;;21.50;39.90;;;;;;476085;248;1127;-39
2022/04/27 05:20:18;;;;;;;;;;;21.50;39.90;;;;;;476108;249;2360;-39
2022/04/27 05:22:19;;;;;;;;;;;21.50;39.90;;;;;;476201;249;1246;-39
2022/04/27 05:24:20;;;;;;;;;;;21.50;39.90;;;;;;476171;249;1098;-39
2022/04/27 05:26:22;;;;;;;;;;;21.50;39.80;;;;;;476138;248;1240;-39
2022/04/27 05:28:23;;;;;;;;;;;21.50;39.90;;;;;;476536;248;2196;-39
2022/04/27 05:32:44;;;;;;;;;;;21.50;39.80;;;;;;476065;249;1084;-39
2022/04/27 05:34:45;;;;;;;;;;;21.50;39.90;;;;;;476044;248;1151;-39
2022/04/27 05:36:46;;;;;;;;;;;21.40;39.90;;;;;;476020;248;1346;-39
2022/04/27 05:38:48;;;;;;;;;;;21.50;39.90;;;;;;476281;248;1184;-39
2022/04/27 05:40:49;;;;;;;;;;;21.50;39.90;;;;;;476008;248;1071;-39
2022/04/27 05:42:50;;;;;;;;;;;21.50;39.90;;;;;;476446;248;1541;-39
2022/04/27 05:44:52;;;;;;;;;;;21.50;39.90;;;;;;476123;248;1121;-39
2022/04/27 05:46:53;;;;;;;;;;;21.50;39.80;;;;;;476098;248;1703;-39
2022/04/27 05:48:55;;;;;;;;;;;21.40;39.90;;;;;;475892;248;2180;-39
2022/04/27 05:50:56;;;;;;;;;;;21.50;40.00;;;;;;475814;248;1265;-40
2022/04/27 05:52:58;;;;;;;;;;;21.50;39.90;;;;;;476021;248;1217;-39
2022/04/27 05:54:58;;;;;;;;;;;21.50;39.90;;;;;;476026;248;2351;-39
2022/04/27 05:57:00;;;;;;;;;;;21.50;39.90;;;;;;475994;248;1354;-39
2022/04/27 05:59:02;;;;;;;;;;;21.50;40.00;;;;;;475921;248;1118;-39
2022/04/27 06:01:04;;;;;;;;;;;21.40;40.00;;;;;;476095;248;1384;-39
2022/04/27 06:03:04;;;;;;;;;;;21.50;40.00;;;;;;475889;248;2707;-39
2022/04/27 06:05:06;;;;;;;;;;;21.50;39.90;;;;;;476178;248;1210;-39
2022/04/27 06:07:08;;;;;;;;;;;21.50;39.90;;;;;;475958;248;1200;-39
2022/04/27 06:09:09;;;;;;;;;;;21.50;39.80;;;;;;475885;248;2225;-39
2022/04/27 06:11:10;;;;;;;;;;;21.50;39.80;;;;;;475938;248;1393;-39
2022/04/27 06:13:13;;;;;;;;;;;21.50;39.90;;;;;;476122;248;1199;-39
2022/04/27 06:15:13;;;;;;;;;;;21.50;39.80;;;;;;476095;249;2079;-39
2022/04/27 06:17:14;;;;;;;;;;;21.50;39.80;;;;;;476012;248;1121;-39
2022/04/27 06:19:16;;;;;;;;;;;21.60;39.80;;;;;;475611;248;1240;-39
2022/04/27 06:21:18;;;;;;;;;;;21.50;39.80;;;;;;476023;250;1395;-39
2022/04/27 06:23:19;;;;;;;;;;;21.50;39.80;;;;;;475831;248;1122;-39
2022/04/27 06:25:22;;;;;;;;;;;21.50;39.80;;;;;;475756;248;1095;-39
2022/04/27 06:27:22;;;;;;;;;;;21.50;39.80;;;;;;475695;249;1844;-39
2022/04/27 06:29:23;;;;;;;;;;;21.50;39.80;;;;;;475673;248;2196;-39
2022/04/27 06:31:24;;;;;;;;;;;21.50;39.70;;;;;;475736;248;1122;-39
2022/04/27 06:33:26;;;;;;;;;;;21.50;39.80;;;;;;475937;248;1085;-39
2022/04/27 06:35:27;;;;;;;;;;;21.50;39.80;;;;;;475988;248;1208;-39
2022/04/27 06:37:28;;;;;;;;;;;21.50;39.80;;;;;;475711;248;1152;-39
2022/04/27 06:39:30;;;;;;;;;;;21.50;39.80;;;;;;475840;248;1200;-39
2022/04/27 06:41:31;;;;;;;;;;;21.50;39.70;;;;;;475844;248;1169;-39
2022/04/27 06:43:32;;;;;;;;;;;21.50;39.70;;;;;;475820;248;1121;-40
2022/04/27 06:45:36;;;;;;;;;;;21.50;39.80;;;;;;475861;248;1275;-40
2022/04/27 06:47:35;;;;;;;;;;;21.50;39.80;;;;;;475790;249;2206;-39
2022/04/27 06:49:36;;;;;;;;;;;21.50;39.80;;;;;;475586;248;2200;-39
2022/04/27 06:51:37;;;;;;;;;;;21.50;39.80;;;;;;475451;248;1086;-39
2022/04/27 06:53:39;;;;;;;;;;;21.50;39.80;;;;;;475434;248;1227;-39
2022/04/27 06:55:40;;;;;;;;;;;21.50;39.80;;;;;;475656;248;1121;-39
2022/04/27 06:57:41;;;;;;;;;;;21.50;39.70;;;;;;475787;248;1099;-39
2022/04/27 06:59:43;;;;;;;;;;;21.60;39.70;;;;;;475743;248;1152;-39
2022/04/27 07:01:44;;;;;;;;;;;21.50;39.70;;;;;;475707;248;1095;-39
2022/04/27 07:03:45;;;;;;;;;;;21.50;39.70;;;;;;475673;248;1201;-39
2022/04/27 07:05:47;;;;;;;;;;;21.60;39.70;;;;;;475846;248;1365;-39
2022/04/27 07:07:48;;;;;;;;;;;21.60;39.70;;;;;;475757;248;1093;-39
2022/04/27 07:09:49;;;;;;;;;;;21.60;39.60;;;;;;475596;248;2196;-39
2022/04/27 07:11:52;;;;;;;;;;;21.50;39.60;;;;;;475618;248;1200;-39
2022/04/27 07:13:54;;;;;;;;;;;21.60;39.70;;;;;;475646;248;2326;-39
2022/04/27 07:15:59;;;;;;;;;;;21.60;39.60;;;;;;475650;249;1962;-39
2022/04/27 07:17:56;;;;;;;;;;;21.50;39.60;;;;;;475375;250;1960;-39
2022/04/27 07:19:57;;;;;;;;;;;21.50;39.60;;;;;;475567;248;1208;-39
2022/04/27 07:21:59;;;;;;;;;;;21.50;39.60;;;;;;475606;248;1184;-39
2022/04/27 07:24:02;;;;;;;;;;;21.50;39.60;;;;;;475514;248;2356;-39
2022/04/27 07:26:01;;;;;;;;;;;21.50;39.70;;;;;;475515;249;2124;-39
2022/04/27 07:28:02;;;;;;;;;;;21.50;39.60;;;;;;475610;248;1260;-39
2022/04/27 07:30:04;;;;;;;;;;;21.50;39.60;;;;;;475712;248;2113;-39
2022/04/27 07:32:05;;;;;;;;;;;21.50;39.60;;;;;;475564;248;1341;-39
2022/04/27 07:34:07;;;;;;;;;;;21.50;39.60;;;;;;475556;248;1230;-39
2022/04/27 07:36:08;;;;;;;;;;;21.60;39.60;;;;;;475664;248;1236;-39
2022/04/27 07:38:09;;;;;;;;;;;21.50;39.60;;;;;;475433;248;1128;-39
2022/04/27 07:40:11;;;;;;;;;;;21.50;39.50;;;;;;475424;248;1156;-39
2022/04/27 07:42:12;;;;;;;;;;;21.50;39.50;;;;;;475410;248;1181;-39
2022/04/27 07:44:13;;;;;;;;;;;21.50;39.50;;;;;;475368;248;1115;-39
2022/04/27 07:46:15;;;;;;;;;;;21.50;39.60;;;;;;475515;248;1323;-39
2022/04/27 07:48:16;;;;;;;;;;;21.50;39.50;;;;;;475401;248;1144;-39
2022/04/27 07:50:18;;;;;;;;;;;21.50;39.60;;;;;;475343;248;2196;-39
2022/04/27 07:52:19;;;;;;;;;;;21.50;39.60;;;;;;475259;249;1387;-39
2022/04/27 07:54:20;;;;;;;;;;;21.50;39.60;;;;;;475278;248;1098;-39
2022/04/27 07:56:21;;;;;;;;;;;21.50;39.50;;;;;;475292;248;1446;-39
2022/04/27 07:58:23;;;;;;;;;;;21.50;39.50;;;;;;475392;248;1064;-39
2022/04/27 08:00:24;;;;;;;;;;;21.50;39.50;;;;;;475505;248;1163;-39
2022/04/27 08:02:25;;;;;;;;;;;21.50;39.50;;;;;;475204;248;1180;-39
2022/04/27 08:04:27;;;;;;;;;;;21.50;39.40;;;;;;475268;248;1091;-39
2022/04/27 08:06:28;;;;;;;;;;;21.50;39.50;;;;;;475243;248;1259;-39
2022/04/27 08:08:29;;;;;;;;;;;21.50;39.40;;;;;;475394;248;1140;-39
2022/04/27 08:10:30;;;;;;;;;;;21.50;39.40;;;;;;475393;248;2212;-39
2022/04/27 08:12:32;;;;;;;;;;;21.50;39.50;;;;;;475427;248;1054;-39
2022/04/27 08:14:34;;;;;;;;;;;21.50;39.40;;;;;;475496;248;1126;-39
2022/04/27 08:16:35;;;;;;;;;;;21.50;39.40;;;;;;475925;248;2023;-39
2022/04/27 08:18:37;;;;;;;;;;;21.50;39.40;;;;;;475533;248;1076;-39
2022/04/27 08:22:57;;;;;;;;;;;21.50;39.40;;;;;;475421;250;1017;-39
2022/04/27 08:24:59;;;;;;;;;;;21.50;39.40;;;;;;475427;248;1051;-39
2022/04/27 08:27:00;;;;;;;;;;;21.50;39.30;;;;;;475240;248;1091;-39
2022/04/27 08:29:01;;;;;;;;;;;21.50;39.40;;;;;;475380;248;2192;-40
2022/04/27 08:31:02;;;;;;;;;;;21.60;39.30;;;;;;475401;248;1088;-39
2022/04/27 08:33:04;;;;;;;;;;;21.60;39.30;;;;;;475507;248;1105;-39
2022/04/27 08:35:05;;;;;;;;;;;21.50;39.30;;;;;;475650;248;1182;-39
2022/04/27 08:37:07;;;;;;;;;;;21.50;39.40;;;;;;475542;248;1308;-39
2022/04/27 08:39:08;;;;;;;;;;;21.50;39.40;;;;;;475486;248;1104;-39
2022/04/27 08:41:09;;;;;;;;;;;21.50;39.30;;;;;;475435;248;1326;-39
2022/04/27 08:43:10;;;;;;;;;;;21.60;39.30;;;;;;475504;248;1076;-39
2022/04/27 08:45:12;;;;;;;;;;;21.50;39.20;;;;;;475404;248;1207;-39
2022/04/27 08:47:13;;;;;;;;;;;21.50;39.30;;;;;;475528;248;1108;-39
2022/04/27 08:49:15;;;;;;;;;;;21.50;39.30;;;;;;475544;248;2188;-39
2022/04/27 08:51:16;;;;;;;;;;;21.50;39.30;;;;;;475408;248;1231;-39
2022/04/27 08:53:18;;;;;;;;;;;21.50;39.20;;;;;;475593;248;1081;-39
2022/04/27 08:55:19;;;;;;;;;;;21.60;39.20;;;;;;475558;248;1051;-39
2022/04/27 08:57:20;;;;;;;;;;;21.60;39.20;;;;;;475633;248;1181;-39
2022/04/27 08:59:21;;;;;;;;;;;21.50;39.20;;;;;;475519;248;1051;-39
2022/04/27 09:01:23;;;;;;;;;;;21.50;39.20;;;;;;475428;249;1352;-39
2022/04/27 09:03:24;;;;;;;;;;;21.50;39.20;;;;;;475697;248;1210;-39
2022/04/27 09:05:26;;;;;;;;;;;21.50;39.30;;;;;;475661;248;1264;-39
2022/04/27 09:07:27;;;;;;;;;;;21.50;39.30;;;;;;475528;249;2310;-39
2022/04/27 09:09:28;;;;;;;;;;;21.50;39.20;;;;;;475255;248;2176;-39
2022/04/27 09:11:30;;;;;;;;;;;21.60;39.20;;;;;;475272;248;1064;-39
2022/04/27 09:13:31;;;;;;;;;;;21.50;39.20;;;;;;475159;248;2348;-39
2022/04/27 09:15:32;;;;;;;;;;;21.50;39.20;;;;;;475259;248;1194;-39
2022/04/27 09:22:12;;;;;;;;;;;21.50;39.30;;;;;;475492;249;1238;-39
2022/04/27 09:24:13;;;;;;;;;;;21.50;39.20;;;;;;475429;248;1068;-39
2022/04/27 09:26:15;;;;;;;;;;;21.50;39.30;;;;;;475318;248;1380;-39
2022/04/27 09:28:16;;;;;;;;;;;21.50;39.30;;;;;;475725;248;1088;-39
2022/04/27 09:30:17;;;;;;;;;;;21.50;39.20;;;;;;475652;248;2204;-39
2022/04/27 09:32:19;;;;;;;;;;;21.50;39.20;;;;;;475578;248;1131;-39
2022/04/27 09:34:28;;;;;;;;;;;21.50;39.30;;;;;;475300;248;1083;-39
2022/04/27 09:36:29;;;;;;;;;;;21.50;39.20;;;;;;475276;248;1193;-39
2022/04/27 09:38:31;;;;;;;;;;;21.50;39.30;;;;;;475773;249;1081;-39
2022/04/27 09:40:32;;;;;;;;;;;21.60;39.20;;;;;;475575;248;2094;-39
2022/04/27 09:42:33;;;;;;;;;;;21.50;39.10;;;;;;475483;248;1066;-39
2022/04/27 09:44:34;;;;;;;;;;;21.50;39.20;;;;;;475530;248;1101;-40
2022/04/27 09:46:36;;;;;;;;;;;21.50;39.20;;;;;;475473;248;1109;-39
2022/04/27 09:48:38;;;;;;;;;;;21.50;39.20;;;;;;475721;248;1188;-39
2022/04/27 09:50:39;;;;;;;;;;;21.50;39.20;;;;;;475506;249;2125;-39
2022/04/27 09:52:40;;;;;;;;;;;21.50;39.20;;;;;;475454;248;1306;-39
2022/04/27 09:54:41;;;;;;;;;;;21.50;39.10;;;;;;475351;248;1127;-39
2022/04/27 09:56:43;;;;;;;;;;;21.50;39.20;;;;;;475353;248;1083;-39
2022/04/27 09:58:44;;;;;;;;;;;21.50;39.20;;;;;;475613;248;1990;-39
2022/04/27 10:00:45;;;;;;;;;;;21.50;39.20;;;;;;475551;248;1178;-39
2022/04/27 10:02:47;;;;;;;;;;;21.50;39.20;;;;;;475655;248;1121;-39
2022/04/27 10:04:48;;;;;;;;;;;21.50;39.10;;;;;;475581;249;2283;-39
2022/04/27 10:06:49;;;;;;;;;;;21.50;39.20;;;;;;475569;248;1067;-39
2022/04/27 10:08:51;;;;;;;;;;;21.50;39.20;;;;;;475659;248;1211;-39
2022/04/27 10:10:52;;;;;;;;;;;21.50;39.10;;;;;;475711;248;2195;-39
2022/04/27 10:12:53;;;;;;;;;;;21.50;39.10;;;;;;475516;248;1149;-39
2022/04/27 10:14:57;;;;;;;;;;;21.50;39.20;;;;;;475518;248;1110;-39
2022/04/27 10:16:56;;;;;;;;;;;21.50;39.20;;;;;;475411;249;2098;-39
2022/04/27 10:18:57;;;;;;;;;;;21.50;39.20;;;;;;475561;248;1099;-39
2022/04/27 10:20:59;;;;;;;;;;;21.50;39.10;;;;;;475452;248;1088;-39
2022/04/27 10:23:00;;;;;;;;;;;21.50;39.20;;;;;;475528;248;1196;-39
2022/04/27 10:25:01;;;;;;;;;;;21.40;39.20;;;;;;475509;249;1102;-39
2022/04/27 10:27:03;;;;;;;;;;;21.50;39.20;;;;;;475590;248;1326;-39
2022/04/27 10:29:05;;;;;;;;;;;21.40;39.20;;;;;;475758;248;1118;-39
2022/04/27 10:31:08;;;;;;;;;;;21.50;39.20;;;;;;475580;248;2193;-39
2022/04/27 10:33:09;;;;;;;;;;;21.50;39.10;;;;;;475563;248;1224;-39
2022/04/27 10:35:10;;;;;;;;;;;21.50;39.20;;;;;;475528;248;1118;-39
2022/04/27 10:37:12;;;;;;;;;;;21.50;39.20;;;;;;475447;248;1346;-39
2022/04/27 10:39:13;;;;;;;;;;;21.50;39.20;;;;;;475567;248;1226;-39
2022/04/27 10:41:14;;;;;;;;;;;21.40;39.20;;;;;;475668;248;1331;-39
2022/04/27 10:43:16;;;;;;;;;;;21.50;39.20;;;;;;475574;248;1082;-39
2022/04/27 10:45:17;;;;;;;;;;;21.50;39.10;;;;;;475508;248;1184;-39
2022/04/27 10:47:18;;;;;;;;;;;21.50;39.10;;;;;;475540;248;1327;-39
2022/04/27 10:49:19;;;;;;;;;;;21.40;39.20;;;;;;475746;248;1116;-39
2022/04/27 10:51:21;;;;;;;;;;;21.40;39.10;;;;;;475619;248;2184;-39
2022/04/27 10:53:22;;;;;;;;;;;21.50;39.20;;;;;;475656;248;1211;-39
2022/04/27 10:55:23;;;;;;;;;;;21.50;39.10;;;;;;475509;248;1281;-39
2022/04/27 10:57:25;;;;;;;;;;;21.50;39.10;;;;;;475551;248;1436;-39
2022/04/27 10:59:26;;;;;;;;;;;21.50;39.10;;;;;;475631;248;1118;-39
2022/04/27 11:01:27;;;;;;;;;;;21.50;39.10;;;;;;475529;248;1232;-39
2022/04/27 11:03:29;;;;;;;;;;;21.50;39.10;;;;;;475602;248;1062;-39
2022/04/27 11:05:30;;;;;;;;;;;21.50;39.00;;;;;;475554;248;1118;-39
2022/04/27 11:07:31;;;;;;;;;;;21.50;39.10;;;;;;475747;248;1156;-39
2022/04/27 11:09:33;;;;;;;;;;;21.50;39.00;;;;;;475719;248;1132;-39
2022/04/27 11:11:34;;;;;;;;;;;21.50;39.10;;;;;;475603;248;2204;-39
2022/04/27 11:13:35;;;;;;;;;;;21.50;39.10;;;;;;476147;248;1040;-39
2022/04/27 11:15:37;;;;;;;;;;;21.50;39.00;;;;;;475480;248;1273;-39
2022/04/27 11:17:38;;;;;;;;;;;21.50;39.10;;;;;;475592;250;1475;-39
2022/04/27 11:19:41;;;;;;;;;;;21.50;39.00;;;;;;475464;248;1202;-39
2022/04/27 11:21:41;;;;;;;;;;;21.50;39.10;;;;;;476312;249;2032;-39
2022/04/27 11:23:42;;;;;;;;;;;21.50;39.10;;;;;;475595;248;1154;-39
2022/04/27 11:25:44;;;;;;;;;;;21.50;39.00;;;;;;475606;248;1302;-39
2022/04/27 11:27:45;;;;;;;;;;;21.50;39.00;;;;;;475472;248;1128;-39
2022/04/27 11:29:46;;;;;;;;;;;21.50;39.10;;;;;;475363;248;1143;-39
2022/04/27 11:31:48;;;;;;;;;;;21.50;39.10;;;;;;475421;248;2191;-39
2022/04/27 11:33:49;;;;;;;;;;;21.50;39.10;;;;;;475487;248;2318;-39
2022/04/27 11:35:51;;;;;;;;;;;21.50;39.10;;;;;;475603;248;2137;-39
2022/04/27 11:37:52;;;;;;;;;;;21.50;39.10;;;;;;475504;248;1172;-39
2022/04/27 11:39:54;;;;;;;;;;;21.50;39.10;;;;;;475332;248;1202;-39
2022/04/27 11:41:55;;;;;;;;;;;21.50;39.10;;;;;;475425;248;1334;-39
2022/04/27 11:43:56;;;;;;;;;;;21.50;39.10;;;;;;475464;248;1153;-39
2022/04/27 11:45:58;;;;;;;;;;;21.50;39.10;;;;;;475397;248;1157;-39
2022/04/27 11:47:59;;;;;;;;;;;21.50;39.00;;;;;;476306;248;1345;-39
2022/04/27 11:50:01;;;;;;;;;;;21.50;39.00;;;;;;476242;248;1081;-39
2022/04/27 11:52:02;;;;;;;;;;;21.50;39.00;;;;;;476263;247;2200;-39
2022/04/27 11:54:04;;;;;;;;;;;21.50;39.00;;;;;;475813;248;1222;-39
2022/04/27 11:56:05;;;;;;;;;;;21.50;39.10;;;;;;475330;248;1339;-39
2022/04/27 11:58:07;;;;;;;;;;;21.40;39.10;;;;;;475449;248;1261;-39
2022/04/27 12:00:08;;;;;;;;;;;21.40;39.10;;;;;;475571;249;1224;-39
2022/04/27 12:02:09;;;;;;;;;;;21.40;39.10;;;;;;475510;248;1343;-39
2022/04/27 12:04:10;;;;;;;;;;;21.50;39.10;;;;;;475487;248;1084;-39
2022/04/27 12:06:12;;;;;;;;;;;21.50;39.00;;;;;;475344;248;1240;-39
2022/04/27 12:08:13;;;;;;;;;;;21.50;39.00;;;;;;475631;248;1119;-39
2022/04/27 12:10:14;;;;;;;;;;;21.60;39.00;;;;;;475489;248;2211;-39
2022/04/27 12:12:16;;;;;;;;;;;21.50;39.00;;;;;;475558;248;1121;-40
2022/04/27 12:14:17;;;;;;;;;;;21.50;39.00;;;;;;475567;248;1114;-39
2022/04/27 12:16:19;;;;;;;;;;;21.50;38.90;;;;;;475413;248;1459;-39